sensor_id;sensor_type;location;lat;lon;timestamp;P1;durP1;ratioP1;P2;durP2;ratioP2
32393;SDS011;18853;45.426;9.206;2024-01-11T00:00:35;21.35;;;13.82;;
32393;SDS011;18853;45.426;9.206;2024-01-11T00:03:01;18.13;;;12.50;;
32393;SDS011;18853;45.426;9.206;2024-01-11T00:05:26;19.80;;;12.88;;
32393;SDS011;18853;45.426;9.206;2024-01-11T00:07:52;22.15;;;13.52;;
32393;SDS011;18853;45.426;9.206;2024-01-11T00:10:18;20.60;;;13.43;;
32393;SDS011;18853;45.426;9.206;2024-01-11T00:12:43;22.85;;;13.93;;
32393;SDS011;18853;45.426;9.206;2024-01-11T00:15:09;21.50;;;14.48;;
32393;SDS011;18853;45.426;9.206;2024-01-11T00:17:35;21.17;;;13.95;;
32393;SDS011;18853;45.426;9.206;2024-01-11T00:20:01;19.60;;;13.38;;
32393;SDS011;18853;45.426;9.206;2024-01-11T00:22:27;21.55;;;13.57;;
32393;SDS011;18853;45.426;9.206;2024-01-11T00:24:53;21.73;;;14.20;;
32393;SDS011;18853;45.426;9.206;2024-01-11T00:27:18;22.25;;;13.88;;
32393;SDS011;18853;45.426;9.206;2024-01-11T00:29:44;20.85;;;13.63;;
32393;SDS011;18853;45.426;9.206;2024-01-11T00:32:09;23.23;;;13.73;;
32393;SDS011;18853;45.426;9.206;2024-01-11T00:34:35;21.38;;;13.55;;
32393;SDS011;18853;45.426;9.206;2024-01-11T00:37:01;19.92;;;13.10;;
32393;SDS011;18853;45.426;9.206;2024-01-11T00:39:27;22.20;;;13.90;;
32393;SDS011;18853;45.426;9.206;2024-01-11T00:41:54;21.30;;;13.70;;
32393;SDS011;18853;45.426;9.206;2024-01-11T00:44:20;22.45;;;14.65;;
32393;SDS011;18853;45.426;9.206;2024-01-11T00:46:45;22.02;;;14.00;;
32393;SDS011;18853;45.426;9.206;2024-01-11T00:49:11;21.88;;;14.35;;
32393;SDS011;18853;45.426;9.206;2024-01-11T00:51:36;23.67;;;14.13;;
32393;SDS011;18853;45.426;9.206;2024-01-11T00:54:02;19.27;;;14.00;;
32393;SDS011;18853;45.426;9.206;2024-01-11T00:56:27;22.40;;;14.60;;
32393;SDS011;18853;45.426;9.206;2024-01-11T00:58:53;21.45;;;14.35;;
32393;SDS011;18853;45.426;9.206;2024-01-11T01:01:18;21.10;;;14.30;;
32393;SDS011;18853;45.426;9.206;2024-01-11T01:03:44;22.38;;;15.07;;
32393;SDS011;18853;45.426;9.206;2024-01-11T01:06:10;25.77;;;14.75;;
32393;SDS011;18853;45.426;9.206;2024-01-11T01:08:36;23.25;;;14.82;;
32393;SDS011;18853;45.426;9.206;2024-01-11T01:11:01;25.23;;;15.45;;
32393;SDS011;18853;45.426;9.206;2024-01-11T01:13:27;23.73;;;15.05;;
32393;SDS011;18853;45.426;9.206;2024-01-11T01:15:52;24.17;;;15.63;;
32393;SDS011;18853;45.426;9.206;2024-01-11T01:18:18;26.20;;;15.73;;
32393;SDS011;18853;45.426;9.206;2024-01-11T01:20:44;25.17;;;15.00;;
32393;SDS011;18853;45.426;9.206;2024-01-11T01:23:09;24.95;;;15.95;;
32393;SDS011;18853;45.426;9.206;2024-01-11T01:25:35;22.55;;;15.00;;
32393;SDS011;18853;45.426;9.206;2024-01-11T01:28:01;23.20;;;13.93;;
32393;SDS011;18853;45.426;9.206;2024-01-11T01:30:26;25.13;;;15.85;;
32393;SDS011;18853;45.426;9.206;2024-01-11T01:32:52;23.67;;;16.17;;
32393;SDS011;18853;45.426;9.206;2024-01-11T01:35:18;23.75;;;15.65;;
32393;SDS011;18853;45.426;9.206;2024-01-11T01:37:44;22.58;;;14.70;;
32393;SDS011;18853;45.426;9.206;2024-01-11T01:40:10;23.67;;;15.57;;
32393;SDS011;18853;45.426;9.206;2024-01-11T01:42:40;24.95;;;16.20;;
32393;SDS011;18853;45.426;9.206;2024-01-11T01:45:10;26.15;;;16.25;;
32393;SDS011;18853;45.426;9.206;2024-01-11T01:47:36;22.48;;;15.60;;
32393;SDS011;18853;45.426;9.206;2024-01-11T01:50:03;23.65;;;15.73;;
32393;SDS011;18853;45.426;9.206;2024-01-11T01:52:29;25.48;;;15.48;;
32393;SDS011;18853;45.426;9.206;2024-01-11T01:54:56;23.48;;;15.25;;
32393;SDS011;18853;45.426;9.206;2024-01-11T01:57:23;26.40;;;15.45;;
32393;SDS011;18853;45.426;9.206;2024-01-11T01:59:50;22.52;;;14.93;;
32393;SDS011;18853;45.426;9.206;2024-01-11T02:02:18;24.67;;;15.27;;
32393;SDS011;18853;45.426;9.206;2024-01-11T02:04:44;25.65;;;16.10;;
32393;SDS011;18853;45.426;9.206;2024-01-11T02:07:10;23.50;;;15.50;;
32393;SDS011;18853;45.426;9.206;2024-01-11T02:09:36;27.58;;;16.38;;
32393;SDS011;18853;45.426;9.206;2024-01-11T02:12:03;29.27;;;16.73;;
32393;SDS011;18853;45.426;9.206;2024-01-11T02:14:30;24.48;;;15.05;;
32393;SDS011;18853;45.426;9.206;2024-01-11T02:16:56;29.52;;;16.17;;
32393;SDS011;18853;45.426;9.206;2024-01-11T02:19:21;25.25;;;16.13;;
32393;SDS011;18853;45.426;9.206;2024-01-11T02:21:48;26.67;;;16.30;;
32393;SDS011;18853;45.426;9.206;2024-01-11T02:24:17;28.42;;;17.35;;
32393;SDS011;18853;45.426;9.206;2024-01-11T02:27:02;25.38;;;16.40;;
32393;SDS011;18853;45.426;9.206;2024-01-11T02:29:29;25.00;;;16.70;;
32393;SDS011;18853;45.426;9.206;2024-01-11T02:31:56;27.88;;;16.60;;
32393;SDS011;18853;45.426;9.206;2024-01-11T02:34:23;27.20;;;17.00;;
32393;SDS011;18853;45.426;9.206;2024-01-11T02:36:49;26.70;;;16.92;;
32393;SDS011;18853;45.426;9.206;2024-01-11T02:39:15;26.00;;;17.58;;
32393;SDS011;18853;45.426;9.206;2024-01-11T02:41:43;28.00;;;17.33;;
32393;SDS011;18853;45.426;9.206;2024-01-11T02:44:09;27.23;;;16.73;;
32393;SDS011;18853;45.426;9.206;2024-01-11T02:46:35;26.08;;;16.55;;
32393;SDS011;18853;45.426;9.206;2024-01-11T02:49:01;25.85;;;16.52;;
32393;SDS011;18853;45.426;9.206;2024-01-11T02:51:26;27.75;;;17.17;;
32393;SDS011;18853;45.426;9.206;2024-01-11T02:53:52;25.63;;;16.92;;
32393;SDS011;18853;45.426;9.206;2024-01-11T02:56:17;28.13;;;16.83;;
32393;SDS011;18853;45.426;9.206;2024-01-11T02:58:43;25.13;;;16.65;;
32393;SDS011;18853;45.426;9.206;2024-01-11T03:01:09;28.02;;;17.17;;
32393;SDS011;18853;45.426;9.206;2024-01-11T03:03:35;23.52;;;16.77;;
32393;SDS011;18853;45.426;9.206;2024-01-11T03:06:01;25.42;;;16.98;;
32393;SDS011;18853;45.426;9.206;2024-01-11T03:08:27;25.63;;;16.15;;
32393;SDS011;18853;45.426;9.206;2024-01-11T03:10:53;30.60;;;17.70;;
32393;SDS011;18853;45.426;9.206;2024-01-11T03:13:19;25.83;;;16.90;;
32393;SDS011;18853;45.426;9.206;2024-01-11T03:15:44;28.48;;;17.85;;
32393;SDS011;18853;45.426;9.206;2024-01-11T03:18:10;26.85;;;18.05;;
32393;SDS011;18853;45.426;9.206;2024-01-11T03:20:35;26.65;;;17.40;;
32393;SDS011;18853;45.426;9.206;2024-01-11T03:23:01;28.90;;;17.75;;
32393;SDS011;18853;45.426;9.206;2024-01-11T03:25:27;28.85;;;17.42;;
32393;SDS011;18853;45.426;9.206;2024-01-11T03:27:54;27.40;;;17.42;;
32393;SDS011;18853;45.426;9.206;2024-01-11T03:30:19;25.52;;;17.20;;
32393;SDS011;18853;45.426;9.206;2024-01-11T03:32:45;29.80;;;17.52;;
32393;SDS011;18853;45.426;9.206;2024-01-11T03:35:10;26.77;;;17.75;;
32393;SDS011;18853;45.426;9.206;2024-01-11T03:37:36;26.60;;;17.40;;
32393;SDS011;18853;45.426;9.206;2024-01-11T03:40:02;25.70;;;17.98;;
32393;SDS011;18853;45.426;9.206;2024-01-11T03:42:29;26.20;;;17.20;;
32393;SDS011;18853;45.426;9.206;2024-01-11T03:44:54;26.75;;;17.63;;
32393;SDS011;18853;45.426;9.206;2024-01-11T03:47:20;25.95;;;17.65;;
32393;SDS011;18853;45.426;9.206;2024-01-11T03:49:46;27.55;;;17.65;;
32393;SDS011;18853;45.426;9.206;2024-01-11T03:52:11;27.48;;;18.35;;
32393;SDS011;18853;45.426;9.206;2024-01-11T03:54:37;27.27;;;17.55;;
32393;SDS011;18853;45.426;9.206;2024-01-11T03:57:03;27.58;;;17.05;;
32393;SDS011;18853;45.426;9.206;2024-01-11T03:59:28;27.33;;;17.92;;
32393;SDS011;18853;45.426;9.206;2024-01-11T04:01:55;28.73;;;17.85;;
32393;SDS011;18853;45.426;9.206;2024-01-11T04:04:21;25.33;;;16.95;;
32393;SDS011;18853;45.426;9.206;2024-01-11T04:06:47;27.73;;;18.13;;
32393;SDS011;18853;45.426;9.206;2024-01-11T04:09:14;25.60;;;17.30;;
32393;SDS011;18853;45.426;9.206;2024-01-11T04:11:40;26.30;;;17.23;;
32393;SDS011;18853;45.426;9.206;2024-01-11T04:14:05;26.52;;;17.27;;
32393;SDS011;18853;45.426;9.206;2024-01-11T04:16:31;24.52;;;16.45;;
32393;SDS011;18853;45.426;9.206;2024-01-11T04:18:57;25.15;;;16.70;;
32393;SDS011;18853;45.426;9.206;2024-01-11T04:21:25;26.98;;;17.17;;
32393;SDS011;18853;45.426;9.206;2024-01-11T04:23:55;26.70;;;16.17;;
32393;SDS011;18853;45.426;9.206;2024-01-11T04:26:21;24.63;;;17.23;;
32393;SDS011;18853;45.426;9.206;2024-01-11T04:28:47;25.95;;;16.85;;
32393;SDS011;18853;45.426;9.206;2024-01-11T04:31:14;27.20;;;16.92;;
32393;SDS011;18853;45.426;9.206;2024-01-11T04:33:42;26.75;;;17.02;;
32393;SDS011;18853;45.426;9.206;2024-01-11T04:36:08;27.90;;;17.20;;
32393;SDS011;18853;45.426;9.206;2024-01-11T04:38:34;24.60;;;16.83;;
32393;SDS011;18853;45.426;9.206;2024-01-11T04:41:00;27.13;;;17.10;;
32393;SDS011;18853;45.426;9.206;2024-01-11T04:43:26;25.20;;;16.33;;
32393;SDS011;18853;45.426;9.206;2024-01-11T04:45:51;28.92;;;17.27;;
32393;SDS011;18853;45.426;9.206;2024-01-11T04:48:17;28.08;;;17.25;;
32393;SDS011;18853;45.426;9.206;2024-01-11T04:50:43;26.60;;;17.77;;
32393;SDS011;18853;45.426;9.206;2024-01-11T04:53:09;25.50;;;17.45;;
32393;SDS011;18853;45.426;9.206;2024-01-11T04:55:35;26.17;;;17.65;;
32393;SDS011;18853;45.426;9.206;2024-01-11T04:58:00;25.67;;;17.17;;
32393;SDS011;18853;45.426;9.206;2024-01-11T05:00:26;24.95;;;16.05;;
32393;SDS011;18853;45.426;9.206;2024-01-11T05:02:52;26.05;;;16.15;;
32393;SDS011;18853;45.426;9.206;2024-01-11T05:05:17;28.08;;;17.33;;
32393;SDS011;18853;45.426;9.206;2024-01-11T05:07:43;25.25;;;16.52;;
32393;SDS011;18853;45.426;9.206;2024-01-11T05:10:08;22.65;;;15.43;;
32393;SDS011;18853;45.426;9.206;2024-01-11T05:12:34;26.35;;;17.58;;
32393;SDS011;18853;45.426;9.206;2024-01-11T05:15:01;24.58;;;16.73;;
32393;SDS011;18853;45.426;9.206;2024-01-11T05:17:27;26.33;;;18.33;;
32393;SDS011;18853;45.426;9.206;2024-01-11T05:19:53;25.10;;;17.17;;
32393;SDS011;18853;45.426;9.206;2024-01-11T05:22:19;25.52;;;17.52;;
32393;SDS011;18853;45.426;9.206;2024-01-11T05:24:44;26.70;;;17.77;;
32393;SDS011;18853;45.426;9.206;2024-01-11T05:27:10;26.73;;;17.20;;
32393;SDS011;18853;45.426;9.206;2024-01-11T05:29:35;27.90;;;18.10;;
32393;SDS011;18853;45.426;9.206;2024-01-11T05:32:01;26.67;;;17.65;;
32393;SDS011;18853;45.426;9.206;2024-01-11T05:34:26;25.63;;;18.08;;
32393;SDS011;18853;45.426;9.206;2024-01-11T05:36:52;29.10;;;17.95;;
32393;SDS011;18853;45.426;9.206;2024-01-11T05:39:17;27.38;;;17.90;;
32393;SDS011;18853;45.426;9.206;2024-01-11T05:41:44;24.95;;;17.48;;
32393;SDS011;18853;45.426;9.206;2024-01-11T05:44:10;23.88;;;17.45;;
32393;SDS011;18853;45.426;9.206;2024-01-11T05:46:36;25.67;;;17.42;;
32393;SDS011;18853;45.426;9.206;2024-01-11T05:49:01;26.55;;;18.33;;
32393;SDS011;18853;45.426;9.206;2024-01-11T05:51:27;27.02;;;18.25;;
32393;SDS011;18853;45.426;9.206;2024-01-11T05:53:53;27.10;;;17.88;;
32393;SDS011;18853;45.426;9.206;2024-01-11T05:56:18;27.10;;;18.30;;
32393;SDS011;18853;45.426;9.206;2024-01-11T05:58:47;29.80;;;19.25;;
32393;SDS011;18853;45.426;9.206;2024-01-11T06:01:13;28.60;;;18.45;;
32393;SDS011;18853;45.426;9.206;2024-01-11T06:03:38;28.27;;;18.25;;
32393;SDS011;18853;45.426;9.206;2024-01-11T06:06:04;29.08;;;17.63;;
32393;SDS011;18853;45.426;9.206;2024-01-11T06:08:30;31.27;;;18.55;;
32393;SDS011;18853;45.426;9.206;2024-01-11T06:10:56;28.42;;;18.42;;
32393;SDS011;18853;45.426;9.206;2024-01-11T06:13:24;29.58;;;18.40;;
32393;SDS011;18853;45.426;9.206;2024-01-11T06:15:51;28.90;;;18.75;;
32393;SDS011;18853;45.426;9.206;2024-01-11T06:18:16;26.50;;;17.92;;
32393;SDS011;18853;45.426;9.206;2024-01-11T06:20:42;27.38;;;18.08;;
32393;SDS011;18853;45.426;9.206;2024-01-11T06:23:07;26.00;;;18.00;;
32393;SDS011;18853;45.426;9.206;2024-01-11T06:25:33;28.63;;;18.45;;
32393;SDS011;18853;45.426;9.206;2024-01-11T06:27:59;29.45;;;18.65;;
32393;SDS011;18853;45.426;9.206;2024-01-11T06:30:24;27.45;;;17.90;;
32393;SDS011;18853;45.426;9.206;2024-01-11T06:32:50;26.00;;;17.90;;
32393;SDS011;18853;45.426;9.206;2024-01-11T06:35:16;26.48;;;18.00;;
32393;SDS011;18853;45.426;9.206;2024-01-11T06:37:41;31.90;;;18.88;;
32393;SDS011;18853;45.426;9.206;2024-01-11T06:40:07;28.73;;;18.52;;
32393;SDS011;18853;45.426;9.206;2024-01-11T06:42:33;25.65;;;17.42;;
32393;SDS011;18853;45.426;9.206;2024-01-11T06:44:59;30.10;;;18.77;;
32393;SDS011;18853;45.426;9.206;2024-01-11T06:47:25;27.15;;;18.17;;
32393;SDS011;18853;45.426;9.206;2024-01-11T06:49:50;26.02;;;17.60;;
32393;SDS011;18853;45.426;9.206;2024-01-11T06:52:16;31.88;;;18.83;;
32393;SDS011;18853;45.426;9.206;2024-01-11T06:54:42;26.08;;;17.25;;
32393;SDS011;18853;45.426;9.206;2024-01-11T06:57:07;26.95;;;19.17;;
32393;SDS011;18853;45.426;9.206;2024-01-11T06:59:33;30.08;;;17.85;;
32393;SDS011;18853;45.426;9.206;2024-01-11T07:01:59;28.15;;;18.27;;
32393;SDS011;18853;45.426;9.206;2024-01-11T07:04:24;27.45;;;18.48;;
32393;SDS011;18853;45.426;9.206;2024-01-11T07:06:50;26.77;;;19.13;;
32393;SDS011;18853;45.426;9.206;2024-01-11T07:09:15;26.25;;;17.80;;
32393;SDS011;18853;45.426;9.206;2024-01-11T07:11:42;30.45;;;19.95;;
32393;SDS011;18853;45.426;9.206;2024-01-11T07:14:08;31.40;;;19.88;;
32393;SDS011;18853;45.426;9.206;2024-01-11T07:16:34;33.72;;;20.83;;
32393;SDS011;18853;45.426;9.206;2024-01-11T07:19:00;34.13;;;19.75;;
32393;SDS011;18853;45.426;9.206;2024-01-11T07:21:25;25.88;;;17.60;;
32393;SDS011;18853;45.426;9.206;2024-01-11T07:24:00;31.33;;;19.90;;
32393;SDS011;18853;45.426;9.206;2024-01-11T07:26:26;27.73;;;18.52;;
32393;SDS011;18853;45.426;9.206;2024-01-11T07:28:53;30.40;;;19.45;;
32393;SDS011;18853;45.426;9.206;2024-01-11T07:31:21;30.30;;;19.25;;
32393;SDS011;18853;45.426;9.206;2024-01-11T07:33:47;28.35;;;19.50;;
32393;SDS011;18853;45.426;9.206;2024-01-11T07:36:12;29.90;;;18.73;;
32393;SDS011;18853;45.426;9.206;2024-01-11T07:38:38;30.70;;;20.38;;
32393;SDS011;18853;45.426;9.206;2024-01-11T07:41:04;31.27;;;19.77;;
32393;SDS011;18853;45.426;9.206;2024-01-11T07:43:29;31.70;;;20.48;;
32393;SDS011;18853;45.426;9.206;2024-01-11T07:45:57;31.25;;;20.15;;
32393;SDS011;18853;45.426;9.206;2024-01-11T07:48:22;32.53;;;20.92;;
32393;SDS011;18853;45.426;9.206;2024-01-11T07:50:49;29.88;;;19.65;;
32393;SDS011;18853;45.426;9.206;2024-01-11T07:53:14;31.52;;;20.83;;
32393;SDS011;18853;45.426;9.206;2024-01-11T07:55:40;32.05;;;20.83;;
32393;SDS011;18853;45.426;9.206;2024-01-11T07:58:06;34.92;;;20.30;;
32393;SDS011;18853;45.426;9.206;2024-01-11T08:00:32;32.08;;;21.63;;
32393;SDS011;18853;45.426;9.206;2024-01-11T08:02:58;35.90;;;22.20;;
32393;SDS011;18853;45.426;9.206;2024-01-11T08:05:24;34.03;;;21.88;;
32393;SDS011;18853;45.426;9.206;2024-01-11T08:07:50;30.67;;;20.92;;
32393;SDS011;18853;45.426;9.206;2024-01-11T08:10:16;30.20;;;21.27;;
32393;SDS011;18853;45.426;9.206;2024-01-11T08:12:41;32.08;;;21.98;;
32393;SDS011;18853;45.426;9.206;2024-01-11T08:15:07;32.55;;;21.27;;
32393;SDS011;18853;45.426;9.206;2024-01-11T08:17:37;36.05;;;24.17;;
32393;SDS011;18853;45.426;9.206;2024-01-11T08:20:11;32.90;;;22.48;;
32393;SDS011;18853;45.426;9.206;2024-01-11T08:22:43;36.00;;;22.67;;
32393;SDS011;18853;45.426;9.206;2024-01-11T08:25:11;34.90;;;23.35;;
32393;SDS011;18853;45.426;9.206;2024-01-11T08:27:36;36.25;;;23.58;;
32393;SDS011;18853;45.426;9.206;2024-01-11T08:30:02;35.47;;;22.90;;
32393;SDS011;18853;45.426;9.206;2024-01-11T08:32:29;32.90;;;22.90;;
32393;SDS011;18853;45.426;9.206;2024-01-11T08:34:56;32.95;;;22.38;;
32393;SDS011;18853;45.426;9.206;2024-01-11T08:37:22;35.58;;;23.40;;
32393;SDS011;18853;45.426;9.206;2024-01-11T08:39:48;33.45;;;22.45;;
32393;SDS011;18853;45.426;9.206;2024-01-11T08:42:14;34.67;;;22.20;;
32393;SDS011;18853;45.426;9.206;2024-01-11T08:44:43;32.72;;;22.13;;
32393;SDS011;18853;45.426;9.206;2024-01-11T08:47:08;36.13;;;22.40;;
32393;SDS011;18853;45.426;9.206;2024-01-11T08:49:40;36.20;;;22.77;;
32393;SDS011;18853;45.426;9.206;2024-01-11T08:52:07;35.28;;;23.10;;
32393;SDS011;18853;45.426;9.206;2024-01-11T08:54:33;34.95;;;22.38;;
32393;SDS011;18853;45.426;9.206;2024-01-11T08:56:58;34.08;;;22.50;;
32393;SDS011;18853;45.426;9.206;2024-01-11T08:59:24;33.17;;;21.35;;
32393;SDS011;18853;45.426;9.206;2024-01-11T09:01:51;34.55;;;22.83;;
32393;SDS011;18853;45.426;9.206;2024-01-11T09:04:17;49.55;;;23.30;;
32393;SDS011;18853;45.426;9.206;2024-01-11T09:06:43;36.70;;;23.50;;
32393;SDS011;18853;45.426;9.206;2024-01-11T09:09:09;34.22;;;23.98;;
32393;SDS011;18853;45.426;9.206;2024-01-11T09:11:35;39.00;;;24.35;;
32393;SDS011;18853;45.426;9.206;2024-01-11T09:14:01;35.58;;;23.83;;
32393;SDS011;18853;45.426;9.206;2024-01-11T09:16:28;40.47;;;25.48;;
32393;SDS011;18853;45.426;9.206;2024-01-11T09:18:53;37.28;;;24.30;;
32393;SDS011;18853;45.426;9.206;2024-01-11T09:21:19;40.22;;;25.73;;
32393;SDS011;18853;45.426;9.206;2024-01-11T09:23:45;37.67;;;25.33;;
32393;SDS011;18853;45.426;9.206;2024-01-11T09:26:10;38.08;;;25.58;;
32393;SDS011;18853;45.426;9.206;2024-01-11T09:28:37;39.80;;;25.42;;
32393;SDS011;18853;45.426;9.206;2024-01-11T09:31:03;38.58;;;25.63;;
32393;SDS011;18853;45.426;9.206;2024-01-11T09:33:28;39.83;;;26.83;;
32393;SDS011;18853;45.426;9.206;2024-01-11T09:35:54;36.35;;;24.35;;
32393;SDS011;18853;45.426;9.206;2024-01-11T09:38:23;34.80;;;24.13;;
32393;SDS011;18853;45.426;9.206;2024-01-11T09:43:43;35.70;;;23.48;;
32393;SDS011;18853;45.426;9.206;2024-01-11T09:46:13;42.53;;;26.55;;
32393;SDS011;18853;45.426;9.206;2024-01-11T09:48:38;37.78;;;24.05;;
32393;SDS011;18853;45.426;9.206;2024-01-11T09:51:07;41.05;;;25.40;;
32393;SDS011;18853;45.426;9.206;2024-01-11T09:53:36;36.10;;;24.52;;
32393;SDS011;18853;45.426;9.206;2024-01-11T09:56:04;35.42;;;23.65;;
32393;SDS011;18853;45.426;9.206;2024-01-11T09:58:35;35.47;;;24.00;;
32393;SDS011;18853;45.426;9.206;2024-01-11T10:01:02;36.55;;;23.55;;
32393;SDS011;18853;45.426;9.206;2024-01-11T10:03:28;38.92;;;23.77;;
32393;SDS011;18853;45.426;9.206;2024-01-11T10:05:54;38.70;;;24.85;;
32393;SDS011;18853;45.426;9.206;2024-01-11T10:08:23;40.95;;;25.55;;
32393;SDS011;18853;45.426;9.206;2024-01-11T10:10:49;40.17;;;26.33;;
32393;SDS011;18853;45.426;9.206;2024-01-11T10:13:15;40.95;;;26.20;;
32393;SDS011;18853;45.426;9.206;2024-01-11T10:15:41;40.15;;;25.52;;
32393;SDS011;18853;45.426;9.206;2024-01-11T10:18:08;45.33;;;27.40;;
32393;SDS011;18853;45.426;9.206;2024-01-11T10:20:33;46.47;;;27.33;;
32393;SDS011;18853;45.426;9.206;2024-01-11T10:22:59;44.13;;;27.20;;
32393;SDS011;18853;45.426;9.206;2024-01-11T10:25:26;42.50;;;27.38;;
32393;SDS011;18853;45.426;9.206;2024-01-11T10:27:52;44.63;;;26.90;;
32393;SDS011;18853;45.426;9.206;2024-01-11T10:30:17;41.85;;;26.90;;
32393;SDS011;18853;45.426;9.206;2024-01-11T10:32:45;40.13;;;25.17;;
32393;SDS011;18853;45.426;9.206;2024-01-11T10:35:12;36.78;;;25.33;;
32393;SDS011;18853;45.426;9.206;2024-01-11T10:37:37;36.45;;;24.38;;
32393;SDS011;18853;45.426;9.206;2024-01-11T10:40:07;36.95;;;23.08;;
32393;SDS011;18853;45.426;9.206;2024-01-11T10:42:43;35.08;;;23.35;;
32393;SDS011;18853;45.426;9.206;2024-01-11T10:45:13;36.13;;;22.67;;
32393;SDS011;18853;45.426;9.206;2024-01-11T10:47:44;37.13;;;22.35;;
32393;SDS011;18853;45.426;9.206;2024-01-11T10:50:16;34.00;;;22.55;;
32393;SDS011;18853;45.426;9.206;2024-01-11T10:52:47;35.20;;;22.25;;
32393;SDS011;18853;45.426;9.206;2024-01-11T10:55:39;38.55;;;21.98;;
32393;SDS011;18853;45.426;9.206;2024-01-11T10:58:07;34.75;;;22.35;;
32393;SDS011;18853;45.426;9.206;2024-01-11T11:00:35;33.00;;;21.88;;
32393;SDS011;18853;45.426;9.206;2024-01-11T11:03:01;39.03;;;23.67;;
32393;SDS011;18853;45.426;9.206;2024-01-11T11:05:30;35.80;;;23.02;;
32393;SDS011;18853;45.426;9.206;2024-01-11T11:07:56;38.50;;;23.98;;
32393;SDS011;18853;45.426;9.206;2024-01-11T11:10:24;37.70;;;24.30;;
32393;SDS011;18853;45.426;9.206;2024-01-11T11:12:52;37.38;;;23.13;;
32393;SDS011;18853;45.426;9.206;2024-01-11T11:15:20;35.05;;;22.55;;
32393;SDS011;18853;45.426;9.206;2024-01-11T11:17:47;39.83;;;23.95;;
32393;SDS011;18853;45.426;9.206;2024-01-11T11:20:15;33.80;;;22.30;;
32393;SDS011;18853;45.426;9.206;2024-01-11T11:22:41;33.88;;;22.17;;
32393;SDS011;18853;45.426;9.206;2024-01-11T11:25:10;38.03;;;23.08;;
32393;SDS011;18853;45.426;9.206;2024-01-11T11:27:36;34.00;;;23.40;;
32393;SDS011;18853;45.426;9.206;2024-01-11T11:30:03;35.28;;;23.55;;
32393;SDS011;18853;45.426;9.206;2024-01-11T11:32:34;36.95;;;23.38;;
32393;SDS011;18853;45.426;9.206;2024-01-11T11:35:04;34.83;;;23.25;;
32393;SDS011;18853;45.426;9.206;2024-01-11T11:37:30;34.08;;;21.80;;
32393;SDS011;18853;45.426;9.206;2024-01-11T11:39:59;32.55;;;22.52;;
32393;SDS011;18853;45.426;9.206;2024-01-11T11:42:25;35.15;;;21.52;;
32393;SDS011;18853;45.426;9.206;2024-01-11T11:44:51;34.58;;;22.38;;
32393;SDS011;18853;45.426;9.206;2024-01-11T11:47:20;33.40;;;22.10;;
32393;SDS011;18853;45.426;9.206;2024-01-11T11:50:03;34.95;;;22.02;;
32393;SDS011;18853;45.426;9.206;2024-01-11T11:52:34;33.47;;;21.08;;
32393;SDS011;18853;45.426;9.206;2024-01-11T11:55:01;35.20;;;21.85;;
32393;SDS011;18853;45.426;9.206;2024-01-11T11:57:27;35.17;;;21.63;;
32393;SDS011;18853;45.426;9.206;2024-01-11T11:59:56;34.45;;;22.15;;
32393;SDS011;18853;45.426;9.206;2024-01-11T12:02:23;33.63;;;22.25;;
32393;SDS011;18853;45.426;9.206;2024-01-11T12:04:50;34.80;;;22.02;;
32393;SDS011;18853;45.426;9.206;2024-01-11T12:07:16;33.38;;;21.38;;
32393;SDS011;18853;45.426;9.206;2024-01-11T12:09:42;34.55;;;22.25;;
32393;SDS011;18853;45.426;9.206;2024-01-11T12:12:08;30.33;;;20.42;;
32393;SDS011;18853;45.426;9.206;2024-01-11T12:14:34;32.33;;;21.75;;
32393;SDS011;18853;45.426;9.206;2024-01-11T12:17:00;34.00;;;22.27;;
32393;SDS011;18853;45.426;9.206;2024-01-11T12:19:26;32.28;;;22.05;;
32393;SDS011;18853;45.426;9.206;2024-01-11T12:21:52;33.97;;;21.92;;
32393;SDS011;18853;45.426;9.206;2024-01-11T12:24:19;32.25;;;22.58;;
32393;SDS011;18853;45.426;9.206;2024-01-11T12:26:47;32.13;;;22.25;;
32393;SDS011;18853;45.426;9.206;2024-01-11T12:29:15;34.65;;;22.95;;
32393;SDS011;18853;45.426;9.206;2024-01-11T12:31:43;33.30;;;21.58;;
32393;SDS011;18853;45.426;9.206;2024-01-11T12:34:09;34.78;;;22.38;;
32393;SDS011;18853;45.426;9.206;2024-01-11T12:36:36;33.72;;;22.17;;
32393;SDS011;18853;45.426;9.206;2024-01-11T12:39:03;32.72;;;21.73;;
32393;SDS011;18853;45.426;9.206;2024-01-11T12:41:31;31.00;;;21.00;;
32393;SDS011;18853;45.426;9.206;2024-01-11T12:43:57;31.45;;;21.08;;
32393;SDS011;18853;45.426;9.206;2024-01-11T12:46:23;30.15;;;20.65;;
32393;SDS011;18853;45.426;9.206;2024-01-11T12:48:49;31.33;;;20.70;;
32393;SDS011;18853;45.426;9.206;2024-01-11T12:51:17;30.70;;;20.58;;
32393;SDS011;18853;45.426;9.206;2024-01-11T12:53:51;37.83;;;21.15;;
32393;SDS011;18853;45.426;9.206;2024-01-11T12:56:17;31.83;;;20.20;;
32393;SDS011;18853;45.426;9.206;2024-01-11T12:58:46;35.05;;;21.83;;
32393;SDS011;18853;45.426;9.206;2024-01-11T13:01:12;28.83;;;20.77;;
32393;SDS011;18853;45.426;9.206;2024-01-11T13:03:39;28.33;;;20.90;;
32393;SDS011;18853;45.426;9.206;2024-01-11T13:06:08;31.42;;;20.98;;
32393;SDS011;18853;45.426;9.206;2024-01-11T13:08:36;30.05;;;20.58;;
32393;SDS011;18853;45.426;9.206;2024-01-11T13:11:04;30.75;;;20.63;;
32393;SDS011;18853;45.426;9.206;2024-01-11T13:13:35;29.25;;;19.67;;
32393;SDS011;18853;45.426;9.206;2024-01-11T13:16:04;27.67;;;20.05;;
32393;SDS011;18853;45.426;9.206;2024-01-11T13:18:36;31.52;;;21.30;;
32393;SDS011;18853;45.426;9.206;2024-01-11T13:21:01;29.80;;;20.55;;
32393;SDS011;18853;45.426;9.206;2024-01-11T13:23:27;29.17;;;20.70;;
32393;SDS011;18853;45.426;9.206;2024-01-11T13:25:53;32.30;;;21.20;;
32393;SDS011;18853;45.426;9.206;2024-01-11T13:28:19;29.95;;;20.88;;
32393;SDS011;18853;45.426;9.206;2024-01-11T13:30:45;26.52;;;19.30;;
32393;SDS011;18853;45.426;9.206;2024-01-11T13:33:11;27.70;;;20.42;;
32393;SDS011;18853;45.426;9.206;2024-01-11T13:35:39;31.55;;;20.20;;
32393;SDS011;18853;45.426;9.206;2024-01-11T13:38:06;28.38;;;19.92;;
32393;SDS011;18853;45.426;9.206;2024-01-11T13:40:31;31.25;;;20.65;;
32393;SDS011;18853;45.426;9.206;2024-01-11T13:42:57;28.65;;;20.20;;
32393;SDS011;18853;45.426;9.206;2024-01-11T13:45:26;29.52;;;20.35;;
32393;SDS011;18853;45.426;9.206;2024-01-11T13:47:53;29.77;;;20.63;;
32393;SDS011;18853;45.426;9.206;2024-01-11T13:50:19;26.27;;;19.17;;
32393;SDS011;18853;45.426;9.206;2024-01-11T13:52:45;29.98;;;20.60;;
32393;SDS011;18853;45.426;9.206;2024-01-11T13:55:11;29.30;;;19.23;;
32393;SDS011;18853;45.426;9.206;2024-01-11T13:57:37;30.73;;;20.25;;
32393;SDS011;18853;45.426;9.206;2024-01-11T14:00:04;26.13;;;18.90;;
32393;SDS011;18853;45.426;9.206;2024-01-11T14:02:32;24.77;;;17.80;;
32393;SDS011;18853;45.426;9.206;2024-01-11T14:04:58;26.75;;;18.80;;
32393;SDS011;18853;45.426;9.206;2024-01-11T14:07:23;26.58;;;18.75;;
32393;SDS011;18853;45.426;9.206;2024-01-11T14:09:49;28.17;;;19.65;;
32393;SDS011;18853;45.426;9.206;2024-01-11T14:12:15;28.63;;;20.45;;
32393;SDS011;18853;45.426;9.206;2024-01-11T14:14:41;28.92;;;20.13;;
32393;SDS011;18853;45.426;9.206;2024-01-11T14:17:08;28.20;;;19.70;;
32393;SDS011;18853;45.426;9.206;2024-01-11T14:19:33;30.42;;;20.08;;